Time;durP1;ratioP1;P1;durP2;ratioP2;P2;SDS_P1;SDS_P2;PMS_P1;PMS_P2;Temp;Humidity;BMP_temperature;BMP_pressure;BME280_temperature;BME280_humidity;BME280_pressure;Samples;Min_cycle;Max_cycle;Signal;HPM_P1;HPM_P2
2022/04/21 00:01:49;;;;;;;25.85;20.45;;;;;;;7.80;100.00;101087.88;5093596;28;20038;-81
2022/04/21 00:04:35;;;;;;;25.63;20.48;;;;;;;8.05;100.00;101075.69;5093741;28;20028;-81
2022/04/21 00:07:22;;;;;;;25.05;20.60;;;;;;;8.15;100.00;101072.19;5079443;28;20093;-81
2022/04/21 00:10:09;;;;;;;24.88;19.27;;;;;;;8.02;100.00;101075.69;5095254;28;20024;-81
2022/04/21 00:12:55;;;;;;;23.73;19.23;;;;;;;7.92;100.00;101087.88;5093421;28;20028;-80
2022/04/21 00:15:41;;;;;;;21.98;17.95;;;;;;;8.01;100.00;101100.03;5093264;28;20067;-81
2022/04/21 00:18:27;;;;;;;22.70;18.30;;;;;;;7.86;100.00;101097.44;5093281;28;20444;-80
2022/04/21 00:21:12;;;;;;;21.00;17.05;;;;;;;8.02;100.00;101096.56;5079385;28;20032;-80
2022/04/21 00:23:58;;;;;;;22.05;17.80;;;;;;;7.82;100.00;101103.53;5092901;28;20039;-80
2022/04/21 00:26:44;;;;;;;21.60;17.50;;;;;;;7.75;100.00;101105.28;5093652;28;20024;-81
2022/04/21 00:29:30;;;;;;;20.73;17.60;;;;;;;7.82;100.00;101109.63;5093990;28;20047;-81
2022/04/21 00:32:15;;;;;;;20.83;17.27;;;;;;;7.64;100.00;101108.75;5080145;28;20028;-80
2022/04/21 00:35:03;;;;;;;18.50;15.30;;;;;;;7.66;100.00;101112.22;5093354;28;20040;-80
2022/04/21 00:37:55;;;;;;;19.80;15.93;;;;;;;7.43;100.00;101121.78;5079780;28;20094;-80
2022/04/21 00:40:41;;;;;;;20.33;16.23;;;;;;;7.41;100.00;101110.47;5093210;28;20111;-81
2022/04/21 00:43:29;;;;;;;17.88;14.82;;;;;;;7.33;100.00;101125.22;5079092;28;20103;-81
2022/04/21 00:46:19;;;;;;;19.63;15.75;;;;;;;7.63;100.00;101113.09;5094274;28;20032;-80
2022/04/21 00:49:06;;;;;;;18.75;15.38;;;;;;;7.75;100.00;101102.66;5079370;28;20031;-81
2022/04/21 00:51:53;;;;;;;18.73;15.73;;;;;;;7.40;100.00;101103.50;5079514;28;20042;-80
2022/04/21 00:54:39;;;;;;;20.27;15.18;;;;;;;7.32;100.00;101100.88;5094082;28;20024;-81
2022/04/21 00:57:25;;;;;;;18.95;15.82;;;;;;;7.40;100.00;101103.50;5078341;28;20034;-80
2022/04/21 01:00:12;;;;;;;21.05;16.20;;;;;;;7.47;100.00;101108.72;5078754;28;20061;-81
2022/04/21 01:02:58;;;;;;;22.33;15.30;;;;;;;7.23;100.00;101115.66;5079620;28;20038;-80
2022/04/21 01:05:44;;;;;;;18.35;15.43;;;;;;;7.38;100.00;101118.28;5094372;28;20023;-80
2022/04/21 01:08:30;;;;;;;18.08;15.52;;;;;;;7.53;100.00;101110.47;5094341;28;20032;-80
2022/04/21 01:11:16;;;;;;;17.08;14.63;;;;;;;7.12;100.00;101109.53;5078132;28;20027;-81
2022/04/21 01:14:03;;;;;;;17.05;14.57;;;;;;;7.37;100.00;101122.63;5079230;28;20028;-80
2022/04/21 01:16:48;;;;;;;17.50;14.82;;;;;;;7.35;100.00;101123.50;5092846;28;20024;-80
2022/04/21 01:19:35;;;;;;;17.45;14.52;;;;;;;7.08;100.00;101121.66;5078715;28;20032;-80
2022/04/21 01:22:20;;;;;;;19.20;14.35;;;;;;;7.43;100.00;101125.22;5079438;28;20028;-81
2022/04/21 01:25:06;;;;;;;16.08;12.88;;;;;;;7.41;100.00;101113.94;5093933;28;20452;-80
2022/04/21 01:27:58;;;;;;;15.82;13.10;;;;;;;7.31;100.00;101111.34;5078753;28;20451;-81
2022/04/21 01:30:44;;;;;;;15.63;12.85;;;;;;;7.37;100.00;101120.03;5092689;28;20040;-80
2022/04/21 01:33:30;;;;;;;14.82;12.52;;;;;;;7.18;100.00;101125.16;5078434;28;20051;-81
2022/04/21 01:36:16;;;;;;;14.23;12.35;;;;;;;7.37;100.00;101121.75;5092379;28;20447;-81
2022/04/21 01:42:12;;;;;;;13.77;11.00;;;;;;;7.20;100.00;101121.69;5092407;28;20106;-80
2022/04/21 01:44:58;;;;;;;13.43;10.90;;;;;;;7.34;100.00;101121.72;5079618;28;20341;-79
2022/04/21 01:47:44;;;;;;;14.20;11.07;;;;;;;7.21;100.00;101115.66;5092615;28;20024;-80
2022/04/21 01:50:30;;;;;;;13.38;10.98;;;;;;;7.28;100.00;101119.13;5092637;28;20024;-80
2022/04/21 01:53:16;;;;;;;14.95;11.60;;;;;;;7.34;100.00;101114.78;5092843;28;20020;-80
2022/04/21 01:56:01;;;;;;;14.02;11.07;;;;;;;7.37;100.00;101109.59;5078482;28;20517;-79
2022/04/21 01:58:47;;;;;;;12.38;10.63;;;;;;;7.35;100.00;101113.06;5092039;28;20043;-80
2022/04/21 02:01:33;;;;;;;13.82;10.85;;;;;;;7.44;100.00;101113.06;5094160;28;20035;-80
2022/04/21 02:04:18;;;;;;;11.88;9.98;;;;;;;7.28;100.00;101106.09;5078853;28;20031;-79
2022/04/21 02:07:04;;;;;;;13.10;10.65;;;;;;;7.36;100.00;101102.63;5078644;28;20373;-80
2022/04/21 02:09:50;;;;;;;13.18;10.50;;;;;;;7.08;100.00;101100.81;5096514;28;20483;-79
2022/04/21 02:12:36;;;;;;;13.23;10.38;;;;;;;7.35;100.00;101105.25;5096509;28;20028;-80
2022/04/21 02:15:23;;;;;;;13.77;11.02;;;;;;;7.52;100.00;101108.75;5082447;28;20528;-81
2022/04/21 02:18:09;;;;;;;12.23;9.93;;;;;;;7.28;100.00;101109.56;5080747;28;20039;-80
2022/04/21 02:20:54;;;;;;;13.27;10.30;;;;;;;7.04;100.00;101108.66;5081092;28;20023;-80
2022/04/21 02:23:40;;;;;;;12.55;9.85;;;;;;;7.09;100.00;101110.41;5095539;28;20444;-81
2022/04/21 02:26:26;;;;;;;12.43;10.10;;;;;;;7.37;100.00;101106.09;5082821;28;20089;-82
2022/04/21 02:29:12;;;;;;;13.30;10.82;;;;;;;7.02;100.00;101106.03;5095795;28;20028;-81
2022/04/21 02:31:59;;;;;;;13.63;10.70;;;;;;;6.88;100.00;101112.06;5096171;28;20440;-81
2022/04/21 02:34:45;;;;;;;13.98;10.25;;;;;;;6.89;100.00;101106.88;5081298;28;20048;-82
2022/04/21 02:37:45;;;;;;;11.43;9.48;;;;;;;7.07;100.00;101106.06;5081956;28;20372;-81
2022/04/21 02:40:31;;;;;;;12.98;10.30;;;;;;;7.09;100.00;101107.81;5082405;28;20039;-81
2022/04/21 02:43:17;;;;;;;12.93;10.35;;;;;;;7.32;100.00;101110.47;5082166;28;20034;-81
2022/04/21 02:46:03;;;;;;;12.10;9.90;;;;;;;7.01;100.00;101104.31;5082224;28;20030;-81
2022/04/21 02:48:49;;;;;;;12.63;10.52;;;;;;;6.90;100.00;101111.19;5095178;28;20032;-81
2022/04/21 02:51:35;;;;;;;12.27;9.65;;;;;;;6.65;100.00;101117.19;5095219;28;20127;-81
2022/04/21 02:57:26;;;;;;;13.25;10.43;;;;;;;6.77;100.00;101121.56;5096668;28;20437;-82
2022/04/21 03:00:12;;;;;;;14.02;10.90;;;;;;;6.92;100.00;101134.66;5096907;28;20027;-80
2022/04/21 03:02:58;;;;;;;13.82;10.82;;;;;;;6.71;100.00;101138.03;5101985;28;20031;-81
2022/04/21 03:05:43;;;;;;;12.23;10.27;;;;;;;6.78;100.00;101131.09;5089709;28;20452;-80
2022/04/21 03:08:29;;;;;;;12.68;9.80;;;;;;;6.70;100.00;101136.28;5082020;28;20436;-81
2022/04/21 03:11:15;;;;;;;13.60;10.48;;;;;;;6.89;100.00;101138.13;5096496;28;20486;-81
2022/04/21 03:14:00;;;;;;;13.43;10.40;;;;;;;6.86;100.00;101134.63;5096349;28;20032;-81
2022/04/21 03:16:46;;;;;;;14.50;10.82;;;;;;;6.77;100.00;101142.38;5099288;28;20031;-80
2022/04/21 03:19:33;;;;;;;12.35;10.05;;;;;;;6.93;100.00;101139.00;5094882;28;20418;-81
2022/04/21 03:25:23;;;;;;;15.10;10.50;;;;;;;6.99;100.00;101133.81;5095546;28;20020;-80
2022/04/21 03:28:09;;;;;;;14.23;10.25;;;;;;;6.81;100.00;101145.03;5080926;28;20024;-80
2022/04/21 03:30:54;;;;;;;15.63;11.80;;;;;;;6.77;100.00;101134.56;5094290;28;20051;-81
2022/04/21 03:33:40;;;;;;;19.55;14.27;;;;;;;6.76;100.00;101132.84;5080105;28;20048;-80
2022/04/21 03:36:26;;;;;;;14.55;11.23;;;;;;;6.82;100.00;101128.53;5094267;28;20032;-81
2022/04/21 03:39:12;;;;;;;14.93;11.35;;;;;;;6.59;100.00;101124.09;5080918;28;20024;-81
2022/04/21 03:41:58;;;;;;;15.60;12.35;;;;;;;6.87;100.00;101120.75;5094850;28;20452;-81
2022/04/21 03:44:43;;;;;;;15.43;12.15;;;;;;;6.93;100.00;101120.75;5094941;28;20036;-81
2022/04/21 03:47:29;;;;;;;17.85;12.93;;;;;;;6.84;100.00;101113.81;5080883;28;20039;-81
2022/04/21 03:50:15;;;;;;;15.43;11.77;;;;;;;6.80;100.00;101121.59;5079765;28;20024;-81
2022/04/21 03:53:01;;;;;;;17.65;11.90;;;;;;;6.90;100.00;101123.34;5094457;28;20483;-81
2022/04/21 03:55:58;;;;;;;16.98;12.35;;;;;;;6.84;100.00;101116.41;5094899;28;20024;-85
2022/04/21 03:58:45;;;;;;;16.42;12.43;;;;;;;7.10;100.00;101108.66;5080770;28;20031;-79
2022/04/21 04:01:30;;;;;;;17.35;12.88;;;;;;;6.86;100.00;101114.66;5095097;28;20066;-81
2022/04/21 04:04:16;;;;;;;18.20;13.35;;;;;;;7.14;100.00;101111.28;5093901;28;20020;-81
2022/04/21 04:13:13;;;;;;;18.15;12.27;;;;;;;6.96;100.00;101125.97;5094280;28;20457;-81
2022/04/21 04:16:00;;;;;;;16.35;12.27;;;;;;;7.02;100.00;101126.00;5080771;28;20070;-80
2022/04/21 04:18:45;;;;;;;16.98;12.68;;;;;;;6.98;100.00;101117.31;5093953;28;20442;-80
2022/04/21 04:21:31;;;;;;;16.48;12.13;;;;;;;7.12;100.00;101123.41;5095392;28;20117;-81
2022/04/21 04:24:17;;;;;;;17.42;13.15;;;;;;;7.31;100.00;101117.38;5079749;28;20095;-80
2022/04/21 04:27:03;;;;;;;18.23;12.60;;;;;;;7.34;100.00;101124.34;5093673;28;20039;-82
2022/04/21 04:29:49;;;;;;;16.33;12.57;;;;;;;7.42;100.00;101123.50;5092858;28;20032;-80
2022/04/21 04:32:35;;;;;;;15.60;11.77;;;;;;;7.60;100.00;101127.88;5093618;28;20032;-81
2022/04/21 04:35:21;;;;;;;19.85;12.38;;;;;;;7.88;100.00;101127.03;5093312;28;20020;-81
2022/04/21 04:38:07;;;;;;;16.00;11.27;;;;;;;7.55;100.00;101133.06;5094151;28;20107;-81
2022/04/21 04:40:52;;;;;;;14.38;11.07;;;;;;;7.82;100.00;101127.00;5094122;28;20038;-80
2022/04/21 04:43:38;;;;;;;16.50;12.52;;;;;;;7.88;100.00;101114.81;5093657;28;20020;-81
2022/04/21 04:46:37;;;;;;;15.02;12.05;;;;;;;7.88;100.00;101125.25;5093739;28;20020;-80
2022/04/21 04:49:24;;;;;;;16.42;12.23;;;;;;;7.90;100.00;101128.75;5093743;28;20024;-80
2022/04/21 04:52:27;;;;;;;14.57;11.52;;;;;;;8.05;100.00;101128.75;5080054;28;20368;-79
2022/04/21 04:58:18;;;;;;;14.25;11.40;;;;;;;8.12;100.00;101137.44;5082628;28;20031;-79
2022/04/21 05:01:04;;;;;;;14.15;11.10;;;;;;;8.06;100.00;101130.50;5078679;28;20093;-79
2022/04/21 05:03:49;;;;;;;15.25;11.45;;;;;;;8.10;100.00;101129.63;5095452;28;20028;-80
2022/04/21 05:06:41;;;;;;;13.48;10.85;;;;;;;8.18;100.00;101134.81;5079207;28;20028;-80
2022/04/21 05:09:26;;;;;;;14.70;10.77;;;;;;;8.36;100.00;101130.47;5094543;28;20452;-79
2022/04/21 05:12:12;;;;;;;13.25;10.98;;;;;;;8.50;100.00;101138.28;5092322;28;20023;-80
2022/04/21 05:14:58;;;;;;;13.40;10.77;;;;;;;8.49;100.00;101132.16;5077935;28;20024;-79
2022/04/21 05:17:44;;;;;;;14.27;10.90;;;;;;;8.47;100.00;101127.81;5093111;28;20028;-79
2022/04/21 05:20:30;;;;;;;14.63;10.45;;;;;;;8.71;100.00;101123.41;5092930;28;20038;-81
2022/04/21 05:23:17;;;;;;;13.52;10.80;;;;;;;8.58;100.00;101132.16;5094015;28;20066;-79
2022/04/21 05:26:03;;;;;;;13.75;10.75;;;;;;;8.72;100.00;101134.75;5079593;28;20028;-81
2022/04/21 05:28:49;;;;;;;15.63;11.32;;;;;;;8.78;100.00;101137.31;5092206;28;20436;-80
2022/04/21 05:31:35;;;;;;;14.18;11.35;;;;;;;9.25;100.00;101133.59;5093120;28;20035;-80
2022/04/21 05:34:21;;;;;;;12.25;9.90;;;;;;;9.40;100.00;101135.25;5094040;28;20048;-79
2022/04/21 05:37:07;;;;;;;11.35;9.38;;;;;;;9.48;100.00;101129.13;5094068;28;20024;-79
2022/04/21 05:39:53;;;;;;;10.18;8.57;;;;;;;9.41;100.00;101131.78;5079547;28;20425;-80
2022/04/21 05:42:45;;;;;;;10.40;8.55;;;;;;;9.23;100.00;101131.88;5094543;28;20039;-79
2022/04/21 05:45:31;;;;;;;9.65;8.27;;;;;;;9.62;100.00;101140.34;5099303;28;20363;-79
2022/04/21 05:48:17;;;;;;;10.90;9.13;;;;;;;9.71;100.00;101147.25;5097445;28;20039;-79
2022/04/21 05:51:04;;;;;;;10.30;8.80;;;;;;;9.67;100.00;101138.56;5097472;28;20024;-78
2022/04/21 05:53:51;;;;;;;11.10;8.70;;;;;;;9.67;100.00;101150.78;5097343;28;20028;-79
2022/04/21 05:56:39;;;;;;;11.15;9.15;;;;;;;9.88;100.00;101143.66;5097576;28;20089;-79
2022/04/21 05:59:25;;;;;;;9.70;8.30;;;;;;;9.52;100.00;101148.25;5098096;28;20114;-78
2022/04/21 06:02:12;;;;;;;9.93;8.57;;;;;;;10.31;100.00;101154.66;5097895;28;20038;-79
2022/04/21 06:04:59;;;;;;;11.75;9.15;;;;;;;10.17;100.00;101148.69;5083491;28;20061;-79
2022/04/21 06:07:44;;;;;;;14.38;8.88;;;;;;;10.46;100.00;101145.75;5083114;28;20036;-80
2022/04/21 06:10:30;;;;;;;13.30;9.57;;;;;;;10.32;100.00;101150.28;5097565;28;20020;-79
2022/04/21 06:13:16;;;;;;;12.20;9.05;;;;;;;9.95;100.00;101150.56;5084791;28;20104;-78
2022/04/21 06:16:02;;;;;;;12.80;10.30;;;;;;;10.12;100.00;101168.78;5097351;28;20027;-77
2022/04/21 06:18:47;;;;;;;14.23;10.32;;;;;;;10.08;100.00;101165.31;5097366;28;20073;-78
2022/04/21 06:21:34;;;;;;;10.85;9.20;;;;;;;10.18;100.00;101158.25;5097937;28;20115;-80
2022/04/21 06:24:20;;;;;;;12.40;9.90;;;;;;;10.44;100.00;101151.00;5099258;28;20039;-80
2022/04/21 06:27:06;;;;;;;11.93;9.50;;;;;;;10.43;100.00;101146.66;5098459;28;20016;-76
2022/04/21 06:29:52;;;;;;;11.98;9.90;;;;;;;10.43;100.00;101143.16;5097124;28;20106;-77
2022/04/21 06:32:37;;;;;;;13.10;10.38;;;;;;;10.68;100.00;101145.50;5096203;28;20020;-77
2022/04/21 06:35:23;;;;;;;12.80;10.70;;;;;;;10.92;100.00;101139.09;5097063;28;20027;-77
2022/04/21 06:38:13;;;;;;;11.07;9.40;;;;;;;10.91;100.00;101140.88;5096749;28;20028;-78
2022/04/21 06:40:59;;;;;;;11.57;9.85;;;;;;;10.90;100.00;101143.53;5096334;28;20020;-76
2022/04/21 06:49:53;;;;;;;13.27;10.77;;;;;;;11.35;100.00;101154.28;5095514;28;20088;-71
2022/04/21 06:52:39;;;;;;;12.70;10.00;;;;;;;11.24;100.00;101158.81;5095644;28;20114;-73
2022/04/21 06:55:25;;;;;;;12.23;9.52;;;;;;;11.27;100.00;101150.91;5094800;28;20031;-72
2022/04/21 06:58:10;;;;;;;12.55;9.95;;;;;;;11.18;100.00;101151.03;5095665;28;20038;-74
2022/04/21 07:00:56;;;;;;;11.52;10.15;;;;;;;11.25;100.00;101152.66;5094545;28;20016;-73
2022/04/21 07:03:42;;;;;;;13.38;10.60;;;;;;;11.43;100.00;101149.81;5095627;28;20027;-74
2022/04/21 07:06:28;;;;;;;12.85;10.18;;;;;;;11.58;100.00;101154.81;5095995;28;20028;-74
2022/04/21 07:09:14;;;;;;;12.02;10.18;;;;;;;11.69;100.00;101150.31;5094740;28;20032;-75
2022/04/21 07:11:59;;;;;;;12.35;10.35;;;;;;;11.90;100.00;101155.22;5080309;28;20115;-74
2022/04/21 07:14:45;;;;;;;10.68;9.52;;;;;;;12.03;100.00;101148.91;5094949;28;20020;-74
2022/04/21 07:17:31;;;;;;;15.18;10.85;;;;;;;11.97;100.00;101150.78;5095311;28;20103;-75
2022/04/21 07:20:17;;;;;;;11.88;9.80;;;;;;;11.88;100.00;101149.16;5096016;28;20360;-74
2022/04/21 07:23:03;;;;;;;14.32;11.57;;;;;;;12.10;100.00;101147.03;5094085;28;20392;-74
2022/04/21 07:25:49;;;;;;;13.75;11.85;;;;;;;12.14;100.00;101148.72;5094175;28;20026;-75
2022/04/21 07:28:35;;;;;;;13.00;10.90;;;;;;;12.24;100.00;101145.03;5094437;28;20020;-75
2022/04/21 07:31:20;;;;;;;12.68;10.80;;;;;;;12.21;100.00;101156.47;5080544;28;20024;-75
2022/04/21 07:34:06;;;;;;;12.65;10.75;;;;;;;12.67;100.00;101149.50;5094604;28;20353;-74
2022/04/21 07:36:52;;;;;;;11.38;9.93;;;;;;;12.49;100.00;101149.84;5094512;28;20031;-74
2022/04/21 07:39:42;;;;;;;12.07;10.35;;;;;;;12.98;100.00;101147.16;5093967;28;20067;-74
2022/04/21 07:42:28;;;;;;;12.27;10.20;;;;;;;12.65;100.00;101135.50;5095376;28;20055;-74
2022/04/21 07:45:14;;;;;;;13.85;10.25;;;;;;;13.17;100.00;101135.34;5095337;28;20016;-75
2022/04/21 07:47:59;;;;;;;12.00;10.43;;;;;;;13.00;100.00;101132.19;5094411;28;20395;-74
2022/04/21 07:50:45;;;;;;;11.77;10.27;;;;;;;13.19;100.00;101133.56;5094445;28;20028;-74
2022/04/21 07:53:31;;;;;;;11.75;9.70;;;;;;;12.74;100.00;101126.59;5093869;28;20448;-74
2022/04/21 07:56:17;;;;;;;13.23;10.48;;;;;;;13.23;100.00;101122.91;5094942;28;20032;-74
2022/04/21 07:59:03;;;;;;;17.60;11.98;;;;;;;13.34;100.00;101127.97;5093825;28;20024;-76
2022/04/21 08:01:51;;;;;;;11.10;9.93;;;;;;;13.78;100.00;101117.25;5079805;28;20032;-74
2022/04/21 08:04:40;;;;;;;12.68;10.27;;;;;;;13.12;100.00;101118.78;5081242;28;20463;-75
2022/04/21 08:07:26;;;;;;;14.75;9.98;;;;;;;13.91;100.00;101114.28;5094813;28;20054;-73
2022/04/21 08:10:12;;;;;;;11.57;10.38;;;;;;;14.42;100.00;101118.25;5080897;28;20039;-74
2022/04/21 08:12:59;;;;;;;10.90;9.52;;;;;;;14.37;100.00;101119.28;5079907;28;20513;-74
2022/04/21 08:15:46;;;;;;;14.50;9.70;;;;;;;14.34;100.00;101114.09;5094454;28;20028;-74
2022/04/21 08:18:32;;;;;;;14.43;10.75;;;;;;;14.35;100.00;101119.31;5094513;28;20034;-73
2022/04/21 08:21:18;;;;;;;12.02;10.02;;;;;;;15.04;100.00;101111.22;5094167;28;20052;-74
2022/04/21 08:33:20;;;;;;;11.10;9.85;;;;;;;15.63;93.23;101112.91;5093953;28;20048;-73
2022/04/21 08:36:06;;;;;;;11.32;10.10;;;;;;;15.99;92.85;101095.88;5075725;28;20052;-74
2022/04/21 08:38:52;;;;;;;13.63;9.85;;;;;;;15.94;94.20;101105.75;5093710;28;20066;-73
2022/04/21 08:41:46;;;;;;;10.70;9.57;;;;;;;15.33;98.55;101105.06;5092523;28;20125;-73
2022/04/21 08:44:33;;;;;;;11.98;10.50;;;;;;;15.34;96.00;101105.00;5093534;28;20020;-73
2022/04/21 08:47:19;;;;;;;10.48;9.38;;;;;;;14.97;100.00;101106.16;5093235;28;20032;-72
2022/04/21 08:50:08;;;;;;;11.57;10.07;;;;;;;15.53;98.17;101114.13;5080026;28;20031;-73
2022/04/21 08:52:54;;;;;;;11.60;10.18;;;;;;;15.95;93.95;101106.63;5094447;28;20038;-73
2022/04/21 08:55:40;;;;;;;11.00;9.80;;;;;;;15.60;92.74;101102.47;5106124;28;20024;-75
2022/04/21 08:58:26;;;;;;;11.80;10.32;;;;;;;15.50;97.06;101105.44;5098853;28;20027;-74
2022/04/21 09:01:12;;;;;;;11.27;10.07;;;;;;;15.27;100.00;101095.53;5092804;28;20107;-73
2022/04/21 09:03:58;;;;;;;13.63;10.10;;;;;;;15.58;96.06;101092.84;5095974;28;20523;-74
2022/04/21 09:06:43;;;;;;;11.05;9.95;;;;;;;16.56;89.27;101085.09;5092560;28;20043;-73
2022/04/21 09:09:29;;;;;;;11.13;9.80;;;;;;;16.27;88.26;101095.81;5080719;28;20051;-74
2022/04/21 09:12:18;;;;;;;12.93;11.18;;;;;;;16.25;87.37;101084.41;5092934;28;20111;-74
2022/04/21 09:15:06;;;;;;;11.85;10.13;;;;;;;16.20;89.83;101089.84;5093042;28;20031;-73
2022/04/21 09:17:56;;;;;;;11.52;9.13;;;;;;;15.03;96.93;101087.53;5094764;28;20028;-74
2022/04/21 09:20:43;;;;;;;12.15;9.77;;;;;;;16.38;90.96;101096.28;5084582;28;20443;-73
2022/04/21 09:23:33;;;;;;;12.10;8.90;;;;;;;15.89;89.17;101083.91;5096979;28;20093;-73
2022/04/21 09:26:21;;;;;;;10.77;9.65;;;;;;;16.78;83.89;101091.31;5097433;28;20470;-72
2022/04/21 09:29:06;;;;;;;13.23;9.50;;;;;;;16.31;85.69;101089.50;5070819;28;20028;-72
2022/04/21 09:31:56;;;;;;;10.38;8.75;;;;;;;16.32;83.51;101088.59;5058287;28;20060;-75
2022/04/21 09:34:45;;;;;;;10.05;9.05;;;;;;;16.53;85.48;101085.22;5085319;28;20048;-74
2022/04/21 09:37:31;;;;;;;10.20;9.07;;;;;;;16.60;83.35;101094.66;5083543;28;20036;-74
2022/04/21 09:40:19;;;;;;;10.35;9.35;;;;;;;15.99;88.15;101090.59;5070511;28;20036;-73
2022/04/21 09:43:04;;;;;;;10.93;8.73;;;;;;;15.43;89.79;101083.63;5069573;28;20036;-76
2022/04/21 09:46:09;;;;;;;11.93;9.43;;;;;;;15.88;89.46;101087.47;5074714;28;20128;-73
2022/04/21 09:48:55;;;;;;;9.13;8.23;;;;;;;15.85;85.76;101076.09;5053890;28;20032;-74
2022/04/21 09:51:41;;;;;;;10.75;8.80;;;;;;;15.89;84.35;101080.38;5087602;28;20143;-76
2022/04/21 09:54:28;;;;;;;10.38;8.63;;;;;;;16.09;82.62;101080.56;5088666;28;20031;-77
2022/04/21 09:57:28;;;;;;;23.88;19.42;;;;;;;16.39;83.12;101071.59;5089159;28;20050;-79
2022/04/21 10:00:16;;;;;;;10.23;9.20;;;;;;;16.54;84.31;101077.22;5057392;28;20040;-72
2022/04/21 10:03:03;;;;;;;9.13;8.23;;;;;;;16.05;81.88;101066.59;5073372;28;20071;-74
2022/04/21 10:05:49;;;;;;;9.90;8.50;;;;;;;16.52;79.30;101060.53;5088251;28;20459;-74
2022/04/21 10:08:40;;;;;;;9.98;8.60;;;;;;;16.47;82.27;101072.22;5068480;28;20062;-73
2022/04/21 10:11:27;;;;;;;9.55;8.55;;;;;;;16.30;81.26;101066.59;5057755;28;20051;-74
2022/04/21 10:14:15;;;;;;;10.18;8.55;;;;;;;16.10;86.19;101061.16;5069098;28;20373;-74
2022/04/21 10:17:02;;;;;;;11.35;8.95;;;;;;;16.86;82.85;101065.44;5069312;28;20047;-73
2022/04/21 10:19:50;;;;;;;9.40;8.40;;;;;;;16.70;81.11;101069.56;5067028;28;20093;-74
2022/04/21 10:22:37;;;;;;;11.95;8.73;;;;;;;17.13;81.44;101059.09;5067589;28;20028;-74
2022/04/21 10:25:40;;;;;;;10.10;8.50;;;;;;;17.01;81.72;101067.50;5077338;28;20091;-73
2022/04/21 10:28:46;;;;;;;8.45;7.63;;;;;;;17.43;73.96;101060.56;5086900;28;20036;-75
2022/04/21 10:31:35;;;;;;;9.38;8.20;;;;;;;16.81;78.22;101060.34;5087132;28;20042;-74
2022/04/21 10:34:37;;;;;;;10.40;7.85;;;;;;;16.71;77.12;101061.59;5088354;28;20056;-73
2022/04/21 10:37:32;;;;;;;9.63;7.90;;;;;;;17.17;74.47;101055.41;5088631;28;20048;-73
2022/04/21 10:40:23;;;;;;;10.82;9.70;;;;;;;17.67;73.54;101049.84;5085045;28;20710;-74
2022/04/21 10:43:08;;;;;;;8.63;7.72;;;;;;;17.23;75.24;101055.16;5072404;28;20054;-73
2022/04/21 10:46:05;;;;;;;9.60;6.38;;;;;;;18.17;69.88;101055.69;5071553;28;20090;-73
2022/04/21 10:48:51;;;;;;;10.52;6.97;;;;;;;17.96;68.32;101061.88;5066493;28;20461;-74
2022/04/21 10:57:55;;;;;;;7.95;5.95;;;;;;;16.78;69.91;101044.56;5087355;28;20066;-74
2022/04/21 11:00:41;;;;;;;8.00;7.20;;;;;;;17.62;68.69;101043.00;5073789;28;20054;-74
2022/04/21 11:03:27;;;;;;;7.93;6.43;;;;;;;17.61;66.68;101052.72;5087846;28;20050;-74
2022/04/21 11:06:14;;;;;;;6.90;6.07;;;;;;;17.87;65.45;101049.88;5076351;28;20204;-74
2022/04/21 11:09:00;;;;;;;7.50;5.90;;;;;;;18.23;66.42;101056.28;5079566;28;20067;-72
2022/04/21 11:11:47;;;;;;;7.90;6.28;;;;;;;17.89;63.86;101052.47;5078403;28;20036;-73
2022/04/21 11:14:36;;;;;;;7.00;5.30;;;;;;;17.42;62.83;101042.94;5080000;28;20096;-74
2022/04/21 11:17:23;;;;;;;6.35;5.75;;;;;;;17.39;64.16;101049.22;5080395;28;20036;-73
2022/04/21 11:20:25;;;;;;;8.75;5.55;;;;;;;16.74;62.96;101050.03;5057871;28;20471;-73
2022/04/21 11:23:25;;;;;;;6.13;5.30;;;;;;;16.83;62.24;101045.25;5076717;28;20036;-72
2022/04/21 11:26:13;;;;;;;6.13;4.97;;;;;;;16.69;60.93;101046.69;5073709;28;20452;-73
2022/04/21 11:29:03;;;;;;;6.93;5.82;;;;;;;16.62;63.14;101045.19;5071828;28;20036;-74
2022/04/21 11:31:57;;;;;;;5.82;5.22;;;;;;;16.55;64.35;101044.53;5082874;28;20035;-74
2022/04/21 11:35:02;;;;;;;5.97;5.38;;;;;;;16.57;65.21;101041.84;5080066;28;20490;-73
2022/04/21 11:38:00;;;;;;;6.35;5.63;;;;;;;16.20;65.28;101029.03;5063052;28;20849;-73
2022/04/21 11:40:46;;;;;;;6.18;5.57;;;;;;;16.56;65.29;101027.75;5071131;28;20032;-73
2022/04/21 11:43:32;;;;;;;6.65;5.20;;;;;;;16.59;64.94;101026.81;5070976;28;20020;-72
2022/04/21 11:46:21;;;;;;;6.28;5.68;;;;;;;16.54;65.95;101020.78;5061502;28;20033;-72
2022/04/21 11:49:09;;;;;;;6.95;5.70;;;;;;;16.43;67.11;101012.41;5071899;28;20028;-73
2022/04/21 11:51:55;;;;;;;9.27;5.75;;;;;;;17.22;68.44;101005.78;5073387;28;20036;-73
2022/04/21 11:54:41;;;;;;;6.65;5.82;;;;;;;17.79;67.36;101006.94;5066547;28;20082;-74
2022/04/21 11:57:41;;;;;;;6.85;5.82;;;;;;;17.69;66.44;101002.94;5080475;28;20097;-74
2022/04/21 12:06:55;;;;;;;7.32;6.63;;;;;;;18.34;65.53;100982.44;5078573;28;20498;-72
2022/04/21 12:09:42;;;;;;;6.53;5.93;;;;;;;19.28;63.86;100984.16;5080014;28;20054;-72
2022/04/21 12:12:28;;;;;;;7.43;5.65;;;;;;;18.78;61.88;100981.22;5077895;28;20066;-73
2022/04/21 12:15:14;;;;;;;5.85;5.30;;;;;;;18.85;60.88;100987.13;5083665;28;20039;-73
2022/04/21 12:18:00;;;;;;;7.85;6.00;;;;;;;19.46;59.97;100980.63;5079053;28;20418;-72
2022/04/21 12:20:55;;;;;;;6.18;5.40;;;;;;;19.62;59.86;100968.28;5072906;28;20035;-74
2022/04/21 12:23:44;;;;;;;6.55;5.95;;;;;;;19.20;60.21;100973.00;5072139;28;20029;-74
2022/04/21 12:26:30;;;;;;;7.10;6.07;;;;;;;17.97;62.37;100976.13;5070276;28;20372;-71
2022/04/21 12:29:16;;;;;;;6.45;5.85;;;;;;;18.58;62.99;100964.53;5081486;28;20277;-74
2022/04/21 12:32:03;;;;;;;7.43;6.00;;;;;;;18.12;60.99;100975.44;5063796;28;20026;-75
2022/04/21 12:34:49;;;;;;;6.20;5.60;;;;;;;18.72;61.69;100964.72;5073716;28;20529;-74
2022/04/21 12:37:44;;;;;;;6.90;6.22;;;;;;;18.83;61.21;100971.28;5080155;28;20107;-74
2022/04/21 12:40:31;;;;;;;6.50;5.78;;;;;;;19.75;59.32;100963.19;5079216;28;20031;-72
2022/04/21 12:43:16;;;;;;;7.45;5.85;;;;;;;18.99;59.13;100956.34;5080953;28;20467;-75
2022/04/21 12:46:03;;;;;;;7.80;5.95;;;;;;;18.99;57.73;100964.31;5078495;28;20099;-74
2022/04/21 12:48:49;;;;;;;5.72;5.13;;;;;;;18.80;59.37;100957.25;5074478;28;20108;-73
2022/04/21 12:51:35;;;;;;;5.75;4.85;;;;;;;19.43;57.60;100948.00;5072492;28;20028;-74
2022/04/21 12:54:27;;;;;;;5.50;5.00;;;;;;;19.03;56.53;100941.97;5068215;28;20125;-74
2022/04/21 12:57:14;;;;;;;7.32;4.82;;;;;;;19.27;53.08;100939.94;5061278;28;20021;-73
2022/04/21 13:00:00;;;;;;;4.45;4.05;;;;;;;19.01;49.13;100933.19;5079894;28;20024;-75
2022/04/21 13:02:46;;;;;;;4.38;3.88;;;;;;;19.36;49.16;100944.78;5075530;28;20039;-74
2022/04/21 13:05:32;;;;;;;4.43;4.00;;;;;;;18.88;49.13;100948.00;5060080;28;20445;-74
2022/04/21 13:08:26;;;;;;;4.30;3.90;;;;;;;19.10;49.50;100939.88;5069247;28;20036;-76
2022/04/21 13:11:18;;;;;;;4.30;3.90;;;;;;;19.63;48.58;100939.88;5078009;28;20068;-73
2022/04/21 13:14:04;;;;;;;5.63;3.83;;;;;;;19.37;48.90;100951.81;5060460;28;20028;-74
2022/04/21 13:16:50;;;;;;;6.75;4.70;;;;;;;19.03;49.18;100949.06;5074130;28;20377;-74
2022/04/21 13:19:36;;;;;;;6.25;4.45;;;;;;;19.11;48.81;100947.78;5077137;28;20103;-73
2022/04/21 13:22:22;;;;;;;6.88;3.92;;;;;;;18.90;48.21;100950.59;5075145;28;20545;-74
2022/04/21 13:25:08;;;;;;;4.88;4.38;;;;;;;18.65;49.07;100942.06;5075518;28;20407;-74
2022/04/21 13:27:54;;;;;;;5.75;4.45;;;;;;;18.90;49.34;100940.81;5076890;28;20040;-72
2022/04/21 13:30:40;;;;;;;7.88;5.07;;;;;;;18.74;50.58;100944.28;5072338;28;20036;-74
2022/04/21 13:33:26;;;;;;;5.32;4.30;;;;;;;18.62;49.69;100934.25;5073099;28;20059;-74